Time;durP1;ratioP1;P1;durP2;ratioP2;P2;SDS_P1;SDS_P2;PMS_P1;PMS_P2;Temp;Humidity;BMP_temperature;BMP_pressure;BME280_temperature;BME280_humidity;BME280_pressure;Samples;Min_cycle;Max_cycle;Signal;HPM_P1;HPM_P2
2021/03/03 00:01:44;;;;;;;44.92;41.58;;;;;;;;;;5028830;28;20041;-83
2021/03/03 00:04:11;;;;;;;41.92;38.60;;;;;;;;;;5022370;28;20038;-83
2021/03/03 00:06:38;;;;;;;43.55;40.67;;;;;;;;;;5020791;28;20087;-83
2021/03/03 00:09:05;;;;;;;44.92;41.67;;;;;;;;;;5027328;28;20095;-83
2021/03/03 00:11:32;;;;;;;50.70;46.95;;;;;;;;;;5027386;28;20037;-83
2021/03/03 00:13:59;;;;;;;49.78;45.78;;;;;;;;;;5022505;28;20065;-83
2021/03/03 00:16:25;;;;;;;53.60;48.83;;;;;;;;;;5009130;28;20100;-83
2021/03/03 00:18:53;;;;;;;48.65;44.90;;;;;;;;;;5025257;28;20121;-83
2021/03/03 00:21:19;;;;;;;50.83;46.65;;;;;;;;;;5009901;28;20095;-83
2021/03/03 00:23:47;;;;;;;49.85;45.63;;;;;;;;;;5010635;28;20064;-83
2021/03/03 00:26:15;;;;;;;48.63;45.10;;;;;;;;;;5009116;28;20103;-82
2021/03/03 00:28:42;;;;;;;41.80;39.05;;;;;;;;;;5026489;28;20037;-82
2021/03/03 00:31:09;;;;;;;44.28;41.58;;;;;;;;;;5013631;28;20076;-83
2021/03/03 00:33:36;;;;;;;39.00;36.60;;;;;;;;;;5023450;28;20076;-83
2021/03/03 00:36:03;;;;;;;44.38;41.40;;;;;;;;;;5029188;28;20441;-83
2021/03/03 00:38:30;;;;;;;44.25;41.03;;;;;;;;;;5025424;28;20112;-83
2021/03/03 00:40:57;;;;;;;42.97;40.08;;;;;;;;;;5004688;28;20145;-83
2021/03/03 00:43:24;;;;;;;49.92;46.20;;;;;;;;;;5027217;28;20421;-83
2021/03/03 00:45:51;;;;;;;47.75;44.28;;;;;;;;;;5023575;28;20387;-83
2021/03/03 00:48:18;;;;;;;50.47;46.67;;;;;;;;;;5029308;28;20040;-82
2021/03/03 00:50:45;;;;;;;50.53;46.22;;;;;;;;;;5026264;28;20402;-82
2021/03/03 00:53:12;;;;;;;51.25;47.20;;;;;;;;;;5028148;28;20052;-82
2021/03/03 00:55:39;;;;;;;48.78;44.70;;;;;;;;;;5026398;28;20103;-82
2021/03/03 00:58:07;;;;;;;50.47;46.22;;;;;;;;;;5024403;28;20069;-82
2021/03/03 01:00:35;;;;;;;45.20;41.80;;;;;;;;;;5030362;28;20111;-82
2021/03/03 01:03:03;;;;;;;49.30;45.42;;;;;;;;;;5021831;28;20144;-82
2021/03/03 01:05:31;;;;;;;44.63;41.25;;;;;;;;;;5028714;28;20045;-82
2021/03/03 01:07:58;;;;;;;43.50;40.70;;;;;;;;;;5025911;28;20038;-82
2021/03/03 01:10:25;;;;;;;44.15;40.58;;;;;;;;;;5020818;28;20084;-82
2021/03/03 01:12:51;;;;;;;44.97;41.88;;;;;;;;;;5030647;28;20041;-82
2021/03/03 01:15:18;;;;;;;43.88;40.55;;;;;;;;;;5009761;28;20494;-82
2021/03/03 01:17:45;;;;;;;47.22;44.15;;;;;;;;;;5038884;28;20036;-82
2021/03/03 01:20:12;;;;;;;47.10;43.83;;;;;;;;;;5022121;28;20073;-82
2021/03/03 01:22:39;;;;;;;43.53;40.47;;;;;;;;;;5041654;28;20486;-82
2021/03/03 01:25:07;;;;;;;42.58;39.55;;;;;;;;;;5041966;28;20086;-82
2021/03/03 01:27:34;;;;;;;44.40;41.22;;;;;;;;;;5028029;28;20036;-82
2021/03/03 01:30:00;;;;;;;45.05;42.10;;;;;;;;;;5031569;28;20547;-82
2021/03/03 01:32:27;;;;;;;38.28;35.88;;;;;;;;;;5025323;28;20055;-82
2021/03/03 01:34:54;;;;;;;41.65;38.75;;;;;;;;;;5022350;28;20094;-82
2021/03/03 01:37:21;;;;;;;50.08;46.33;;;;;;;;;;5047488;28;20123;-82
2021/03/03 01:39:48;;;;;;;50.25;46.45;;;;;;;;;;5044221;28;20048;-82
2021/03/03 01:42:15;;;;;;;51.58;47.05;;;;;;;;;;5032335;28;20044;-82
2021/03/03 01:44:42;;;;;;;51.92;47.85;;;;;;;;;;5027202;28;20037;-82
2021/03/03 01:47:09;;;;;;;51.20;47.30;;;;;;;;;;5039381;28;20033;-82
2021/03/03 01:49:36;;;;;;;53.50;49.17;;;;;;;;;;5015549;28;20036;-82
2021/03/03 01:52:03;;;;;;;54.53;49.45;;;;;;;;;;5043139;28;20061;-82
2021/03/03 01:54:31;;;;;;;48.50;45.08;;;;;;;;;;5033722;28;20428;-82
2021/03/03 01:56:58;;;;;;;50.78;47.17;;;;;;;;;;5047312;28;20098;-82
2021/03/03 01:59:25;;;;;;;44.38;41.58;;;;;;;;;;5040378;28;20041;-82
2021/03/03 02:01:51;;;;;;;44.70;41.75;;;;;;;;;;5039619;28;20383;-82
2021/03/03 02:04:19;;;;;;;46.85;43.58;;;;;;;;;;5027935;28;20398;-82
2021/03/03 02:06:49;;;;;;;44.25;41.28;;;;;;;;;;5051417;28;20068;-82
2021/03/03 02:09:19;;;;;;;45.25;42.05;;;;;;;;;;5045974;28;20052;-82
2021/03/03 02:11:51;;;;;;;46.20;42.97;;;;;;;;;;5051577;28;20133;-82
2021/03/03 02:14:20;;;;;;;48.05;44.50;;;;;;;;;;5041557;28;20033;-82
2021/03/03 02:16:49;;;;;;;48.47;44.92;;;;;;;;;;5027201;28;20072;-82
2021/03/03 02:19:20;;;;;;;46.47;43.70;;;;;;;;;;5020170;28;20088;-82
2021/03/03 02:21:52;;;;;;;48.03;44.83;;;;;;;;;;5047829;28;20099;-82
2021/03/03 02:24:30;;;;;;;47.47;44.30;;;;;;;;;;5028096;28;20091;-82
2021/03/03 02:26:58;;;;;;;43.20;40.65;;;;;;;;;;5050651;28;20079;-82
2021/03/03 02:29:26;;;;;;;44.45;41.95;;;;;;;;;;5047051;28;20631;-82
2021/03/03 02:31:54;;;;;;;41.72;39.50;;;;;;;;;;5036246;28;20485;-82
2021/03/03 02:34:24;;;;;;;42.70;40.10;;;;;;;;;;5030437;28;20437;-82
2021/03/03 02:36:52;;;;;;;43.05;40.47;;;;;;;;;;5033729;28;20068;-82
2021/03/03 02:39:21;;;;;;;42.83;40.38;;;;;;;;;;5026378;28;20069;-82
2021/03/03 02:41:48;;;;;;;44.85;42.33;;;;;;;;;;5027441;28;20090;-82
2021/03/03 02:44:16;;;;;;;42.60;40.13;;;;;;;;;;5035262;28;20440;-82
2021/03/03 02:46:43;;;;;;;44.83;41.75;;;;;;;;;;5029601;28;20087;-82
2021/03/03 02:49:12;;;;;;;44.28;41.20;;;;;;;;;;5023159;28;20499;-82
2021/03/03 02:51:39;;;;;;;42.20;39.42;;;;;;;;;;5011314;28;20132;-82
2021/03/03 02:54:13;;;;;;;44.67;42.10;;;;;;;;;;5024791;28;20402;-82
2021/03/03 02:56:40;;;;;;;41.15;38.78;;;;;;;;;;5037270;28;20049;-82
2021/03/03 02:59:14;;;;;;;40.92;38.45;;;;;;;;;;5028450;28;20167;-82
2021/03/03 03:01:59;;;;;;;42.38;39.80;;;;;;;;;;5028560;28;20049;-82
2021/03/03 03:04:28;;;;;;;42.47;40.20;;;;;;;;;;5048195;28;20041;-82
2021/03/03 03:06:56;;;;;;;42.45;39.65;;;;;;;;;;5026676;28;20045;-82
2021/03/03 03:09:23;;;;;;;40.38;38.17;;;;;;;;;;5032861;28;20033;-82
2021/03/03 03:11:54;;;;;;;42.25;39.95;;;;;;;;;;5045920;28;20056;-82
2021/03/03 03:14:24;;;;;;;42.83;40.38;;;;;;;;;;5014862;28;20107;-82
2021/03/03 03:16:52;;;;;;;42.25;39.78;;;;;;;;;;5015550;28;20091;-82
2021/03/03 03:19:21;;;;;;;45.60;42.92;;;;;;;;;;5039024;28;20398;-82
2021/03/03 03:21:50;;;;;;;42.30;39.28;;;;;;;;;;5034756;28;20104;-82
2021/03/03 03:24:19;;;;;;;43.90;41.10;;;;;;;;;;5024755;28;20037;-82
2021/03/03 03:26:49;;;;;;;39.70;37.40;;;;;;;;;;5048784;28;20045;-82
2021/03/03 03:29:16;;;;;;;43.88;41.35;;;;;;;;;;5048339;28;20041;-82
2021/03/03 03:31:44;;;;;;;44.47;41.67;;;;;;;;;;5030534;28;20084;-82
2021/03/03 03:34:12;;;;;;;47.38;44.38;;;;;;;;;;5034710;28;20041;-82
2021/03/03 03:36:40;;;;;;;44.03;41.33;;;;;;;;;;5048082;28;20116;-82
2021/03/03 03:39:11;;;;;;;44.05;41.83;;;;;;;;;;5030338;28;20431;-82
2021/03/03 03:41:39;;;;;;;42.10;39.45;;;;;;;;;;5031488;28;20399;-82
2021/03/03 03:44:08;;;;;;;43.17;40.53;;;;;;;;;;5028051;28;20485;-82
2021/03/03 03:46:36;;;;;;;43.17;40.78;;;;;;;;;;5033757;28;20441;-82
2021/03/03 03:49:04;;;;;;;41.72;39.03;;;;;;;;;;5027487;28;20148;-82
2021/03/03 03:51:31;;;;;;;42.80;40.28;;;;;;;;;;5023547;28;20473;-82
2021/03/03 03:53:58;;;;;;;43.97;41.17;;;;;;;;;;5015267;28;20492;-82
2021/03/03 03:56:25;;;;;;;45.35;42.63;;;;;;;;;;5031152;28;20052;-82
2021/03/03 03:58:52;;;;;;;45.55;42.45;;;;;;;;;;5032153;28;20045;-82
2021/03/03 04:01:19;;;;;;;43.75;41.05;;;;;;;;;;5048022;28;20134;-82
2021/03/03 04:03:46;;;;;;;43.75;41.25;;;;;;;;;;5042489;28;20028;-82
2021/03/03 04:06:13;;;;;;;44.33;41.65;;;;;;;;;;5014342;28;20047;-82
2021/03/03 04:08:40;;;;;;;43.60;40.95;;;;;;;;;;5029455;28;20033;-82
2021/03/03 04:11:07;;;;;;;48.47;45.47;;;;;;;;;;5046146;28;20107;-82
2021/03/03 04:13:34;;;;;;;43.38;40.67;;;;;;;;;;5019447;28;20085;-82
2021/03/03 04:16:01;;;;;;;47.38;44.50;;;;;;;;;;5014643;28;20473;-82
2021/03/03 04:18:28;;;;;;;45.83;42.80;;;;;;;;;;5019988;28;20399;-82
2021/03/03 04:20:55;;;;;;;48.92;45.85;;;;;;;;;;5027435;28;20495;-82
2021/03/03 04:23:22;;;;;;;42.50;39.35;;;;;;;;;;5029342;28;20102;-82
2021/03/03 04:25:49;;;;;;;42.90;40.50;;;;;;;;;;5021758;28;20115;-82
2021/03/03 04:28:15;;;;;;;43.75;41.25;;;;;;;;;;5014889;28;20038;-82
2021/03/03 04:30:42;;;;;;;44.42;41.92;;;;;;;;;;5025876;28;20447;-82
2021/03/03 04:33:12;;;;;;;43.47;41.00;;;;;;;;;;5010489;28;20103;-82
2021/03/03 04:35:40;;;;;;;43.65;41.25;;;;;;;;;;5026903;28;20125;-82
2021/03/03 04:38:09;;;;;;;44.03;41.53;;;;;;;;;;5021677;28;20041;-82
2021/03/03 04:40:37;;;;;;;44.95;42.35;;;;;;;;;;5031125;28;20044;-82
2021/03/03 04:43:04;;;;;;;45.15;42.40;;;;;;;;;;5031821;28;20029;-83
2021/03/03 04:45:31;;;;;;;43.83;41.42;;;;;;;;;;5033584;28;20498;-83
2021/03/03 04:47:57;;;;;;;41.17;38.97;;;;;;;;;;5026523;28;20037;-83
2021/03/03 04:50:24;;;;;;;42.38;40.15;;;;;;;;;;5018285;28;20418;-82
2021/03/03 04:52:52;;;;;;;44.22;42.00;;;;;;;;;;5019763;28;20045;-82
2021/03/03 04:55:19;;;;;;;43.03;40.70;;;;;;;;;;5036944;28;20057;-82
2021/03/03 04:57:46;;;;;;;40.35;37.97;;;;;;;;;;5028537;28;20049;-82
2021/03/03 05:00:14;;;;;;;46.03;43.58;;;;;;;;;;5025515;28;20093;-82
2021/03/03 05:02:41;;;;;;;43.92;41.53;;;;;;;;;;5010053;28;20037;-82
2021/03/03 05:05:08;;;;;;;42.83;40.45;;;;;;;;;;5026568;28;20079;-82
2021/03/03 05:07:35;;;;;;;43.13;40.78;;;;;;;;;;5025004;28;20132;-82
2021/03/03 05:10:02;;;;;;;42.65;40.47;;;;;;;;;;5018671;28;20041;-82
2021/03/03 05:12:29;;;;;;;44.78;42.28;;;;;;;;;;5022622;28;20111;-82
2021/03/03 05:14:56;;;;;;;41.78;39.63;;;;;;;;;;5026086;28;20041;-82
2021/03/03 05:17:23;;;;;;;41.90;39.60;;;;;;;;;;5026123;28;20111;-82
2021/03/03 05:19:50;;;;;;;42.35;40.10;;;;;;;;;;5024606;28;20394;-82
2021/03/03 05:22:17;;;;;;;46.75;44.25;;;;;;;;;;5022761;28;20034;-82
2021/03/03 05:24:43;;;;;;;46.83;44.22;;;;;;;;;;5026383;28;20112;-82
2021/03/03 05:27:10;;;;;;;42.58;40.20;;;;;;;;;;5024355;28;20033;-82
2021/03/03 05:29:37;;;;;;;41.97;39.88;;;;;;;;;;5026812;28;20042;-82
2021/03/03 05:32:04;;;;;;;43.33;40.78;;;;;;;;;;5031105;28;20121;-82
2021/03/03 05:34:31;;;;;;;43.15;40.53;;;;;;;;;;5019675;28;20403;-82
2021/03/03 05:36:59;;;;;;;42.28;39.80;;;;;;;;;;5023045;28;20033;-82
2021/03/03 05:39:26;;;;;;;43.08;40.80;;;;;;;;;;5020900;28;20045;-82
2021/03/03 05:41:53;;;;;;;43.15;40.75;;;;;;;;;;5029671;28;20168;-82
2021/03/03 05:44:19;;;;;;;46.35;43.75;;;;;;;;;;5043202;28;20103;-82
2021/03/03 05:46:46;;;;;;;46.97;44.40;;;;;;;;;;5026191;28;20076;-82
2021/03/03 05:49:17;;;;;;;43.15;40.83;;;;;;;;;;5026913;28;20042;-82
2021/03/03 05:51:45;;;;;;;40.95;38.90;;;;;;;;;;5015839;28;20449;-82
2021/03/03 05:54:12;;;;;;;41.38;39.38;;;;;;;;;;5028539;28;20072;-82
2021/03/03 05:56:40;;;;;;;40.63;38.45;;;;;;;;;;5033234;28;20037;-83
2021/03/03 05:59:10;;;;;;;43.20;40.67;;;;;;;;;;5032227;28;20072;-83
2021/03/03 06:01:38;;;;;;;41.75;39.50;;;;;;;;;;5012028;28;20546;-82
2021/03/03 06:04:19;;;;;;;43.40;40.85;;;;;;;;;;5031837;28;24833;-82
2021/03/03 06:06:46;;;;;;;40.67;38.47;;;;;;;;;;5028994;28;20042;-82
2021/03/03 06:09:13;;;;;;;44.28;41.97;;;;;;;;;;5021087;28;20469;-82
2021/03/03 06:11:40;;;;;;;43.97;41.55;;;;;;;;;;5029446;28;20079;-82
2021/03/03 06:14:07;;;;;;;43.35;41.13;;;;;;;;;;5026994;28;20056;-82
2021/03/03 06:16:34;;;;;;;44.03;41.60;;;;;;;;;;5034104;28;20053;-82
2021/03/03 06:19:01;;;;;;;47.35;44.75;;;;;;;;;;5027780;28;20403;-82
2021/03/03 06:21:30;;;;;;;46.83;44.00;;;;;;;;;;5022589;28;20096;-82
2021/03/03 06:24:03;;;;;;;45.28;42.55;;;;;;;;;;5026906;28;20025;-82
2021/03/03 06:26:29;;;;;;;49.03;45.85;;;;;;;;;;5026150;28;20037;-78
2021/03/03 06:28:56;;;;;;;46.58;43.70;;;;;;;;;;5032571;28;20502;-78
2021/03/03 06:31:33;;;;;;;48.30;45.38;;;;;;;;;;5024410;28;20041;-78
2021/03/03 06:34:11;;;;;;;47.45;44.40;;;;;;;;;;5029712;28;20034;-78
2021/03/03 06:36:39;;;;;;;43.95;40.78;;;;;;;;;;5030575;28;20107;-78
2021/03/03 06:39:18;;;;;;;50.40;47.38;;;;;;;;;;5027137;28;20474;-78
2021/03/03 06:41:45;;;;;;;64.80;58.58;;;;;;;;;;5033494;28;20465;-78
2021/03/03 06:44:12;;;;;;;90.93;73.43;;;;;;;;;;5027397;28;20789;-78
2021/03/03 06:46:39;;;;;;;73.25;65.93;;;;;;;;;;5028823;28;20040;-78
2021/03/03 06:49:20;;;;;;;50.35;46.80;;;;;;;;;;5029557;28;20457;-78
2021/03/03 06:51:49;;;;;;;47.03;43.72;;;;;;;;;;5026551;28;20034;-78
2021/03/03 06:54:20;;;;;;;49.47;46.00;;;;;;;;;;5032775;28;20060;-78
2021/03/03 06:56:48;;;;;;;47.28;44.15;;;;;;;;;;5044631;28;20095;-78
2021/03/03 06:59:15;;;;;;;41.80;39.25;;;;;;;;;;5029882;28;20121;-78
2021/03/03 07:01:43;;;;;;;44.90;42.08;;;;;;;;;;5015522;28;20107;-79
2021/03/03 07:04:30;;;;;;;53.58;49.60;;;;;;;;;;5025101;28;20045;-79
2021/03/03 07:06:58;;;;;;;51.10;47.35;;;;;;;;;;5021795;28;20033;-79
2021/03/03 07:09:26;;;;;;;49.55;46.33;;;;;;;;;;5026265;28;20048;-79
2021/03/03 07:12:03;;;;;;;51.53;47.83;;;;;;;;;;5028070;28;20034;-79
2021/03/03 07:14:31;;;;;;;44.72;42.03;;;;;;;;;;5050140;28;20045;-79
2021/03/03 07:17:00;;;;;;;49.22;45.63;;;;;;;;;;5044306;28;20478;-79
2021/03/03 07:19:27;;;;;;;57.83;52.83;;;;;;;;;;5047584;28;20077;-79
2021/03/03 07:21:54;;;;;;;56.75;52.53;;;;;;;;;;5032461;28;20052;-79
2021/03/03 07:24:22;;;;;;;48.90;45.25;;;;;;;;;;5016268;28;20038;-79
2021/03/03 07:26:49;;;;;;;48.65;44.83;;;;;;;;;;5031897;28;20067;-79
2021/03/03 07:29:16;;;;;;;44.40;42.05;;;;;;;;;;5045397;28;20044;-79
2021/03/03 07:31:43;;;;;;;40.45;38.80;;;;;;;;;;5016892;28;20034;-79
2021/03/03 07:34:10;;;;;;;38.83;37.20;;;;;;;;;;5029066;28;20131;-79
2021/03/03 07:36:38;;;;;;;40.67;38.92;;;;;;;;;;5049928;28;20044;-79
2021/03/03 07:39:06;;;;;;;40.17;38.17;;;;;;;;;;5049892;28;20107;-79
2021/03/03 07:41:34;;;;;;;37.88;36.05;;;;;;;;;;5045646;28;20096;-79
2021/03/03 07:44:02;;;;;;;37.22;35.45;;;;;;;;;;5035319;28;20033;-79
2021/03/03 07:46:30;;;;;;;33.53;31.58;;;;;;;;;;5019500;28;20095;-79
2021/03/03 07:48:57;;;;;;;38.30;36.38;;;;;;;;;;5018196;28;20034;-79
2021/03/03 07:51:24;;;;;;;29.65;27.75;;;;;;;;;;5031866;28;20048;-79
2021/03/03 07:53:51;;;;;;;14.23;13.65;;;;;;;;;;5045868;28;20468;-79
2021/03/03 07:56:18;;;;;;;13.07;12.57;;;;;;;;;;5050154;28;20110;-79
2021/03/03 07:58:45;;;;;;;16.10;15.27;;;;;;;;;;5029743;28;20048;-79
2021/03/03 08:01:24;;;;;;;20.52;19.60;;;;;;;;;;5051138;28;20462;-79
2021/03/03 08:03:52;;;;;;;28.23;26.45;;;;;;;;;;5022773;28;20068;-79
2021/03/03 08:06:26;;;;;;;20.40;18.60;;;;;;;;;;5023966;28;20057;-79
2021/03/03 08:09:05;;;;;;;23.17;20.88;;;;;;;;;;5049811;28;20480;-79
2021/03/03 08:11:38;;;;;;;17.63;16.15;;;;;;;;;;5011864;28;20049;-79
2021/03/03 08:14:25;;;;;;;17.60;16.10;;;;;;;;;;5030089;28;20059;-79
2021/03/03 08:16:57;;;;;;;15.73;14.48;;;;;;;;;;5039966;28;20049;-79
2021/03/03 08:19:43;;;;;;;14.95;13.85;;;;;;;;;;5026803;28;20044;-79
2021/03/03 08:22:10;;;;;;;14.43;13.32;;;;;;;;;;5033656;28;20044;-79
2021/03/03 08:24:38;;;;;;;13.52;12.63;;;;;;;;;;5029837;28;20052;-79
2021/03/03 08:27:34;;;;;;;11.55;10.95;;;;;;;;;;5044905;28;20095;-79
2021/03/03 08:30:14;;;;;;;13.07;12.48;;;;;;;;;;5051908;28;20037;-79
2021/03/03 08:32:41;;;;;;;13.68;13.07;;;;;;;;;;5030104;28;20442;-79
2021/03/03 08:35:10;;;;;;;12.50;11.35;;;;;;;;;;5013451;28;20144;-79
2021/03/03 08:37:38;;;;;;;12.57;11.88;;;;;;;;;;5049520;28;20041;-79
2021/03/03 08:40:37;;;;;;;12.38;11.60;;;;;;;;;;5028696;28;20045;-79
2021/03/03 08:43:24;;;;;;;11.15;10.05;;;;;;;;;;5007938;28;20049;-79
2021/03/03 08:45:51;;;;;;;9.55;9.00;;;;;;;;;;4993974;28;20137;-79
2021/03/03 08:48:18;;;;;;;8.93;8.63;;;;;;;;;;5006856;28;20054;-79
2021/03/03 08:50:46;;;;;;;8.82;8.45;;;;;;;;;;5007363;28;20042;-79
2021/03/03 08:53:27;;;;;;;9.30;9.00;;;;;;;;;;4992176;28;20058;-79
2021/03/03 08:55:55;;;;;;;9.73;9.30;;;;;;;;;;5004928;28;20085;-79
2021/03/03 08:58:35;;;;;;;10.27;9.52;;;;;;;;;;4991055;28;20041;-79
2021/03/03 09:01:02;;;;;;;10.40;9.73;;;;;;;;;;4995153;28;20112;-79
2021/03/03 09:03:30;;;;;;;10.50;9.88;;;;;;;;;;4993207;28;20129;-79
2021/03/03 09:05:57;;;;;;;9.07;8.77;;;;;;;;;;5008425;28;20514;-79
2021/03/03 09:08:25;;;;;;;8.13;7.93;;;;;;;;;;4994733;28;20042;-79
2021/03/03 09:10:52;;;;;;;10.57;9.80;;;;;;;;;;4992519;28;20049;-80
2021/03/03 09:13:23;;;;;;;10.15;9.60;;;;;;;;;;5007328;28;20131;-80
2021/03/03 09:16:03;;;;;;;9.77;9.18;;;;;;;;;;4993811;28;20072;-80
2021/03/03 09:18:30;;;;;;;8.73;8.25;;;;;;;;;;5022916;28;20053;-80
2021/03/03 09:21:10;;;;;;;10.40;9.60;;;;;;;;;;5027550;28;20045;-80
2021/03/03 09:23:38;;;;;;;12.60;10.32;;;;;;;;;;5048751;28;20513;-80
2021/03/03 09:26:20;;;;;;;11.63;10.80;;;;;;;;;;5015927;28;20033;-80
2021/03/03 09:28:47;;;;;;;10.60;9.85;;;;;;;;;;5049215;28;20044;-80
2021/03/03 09:31:34;;;;;;;10.52;9.95;;;;;;;;;;5044700;28;20080;-80
2021/03/03 09:34:03;;;;;;;10.32;9.80;;;;;;;;;;5028777;28;20052;-80
2021/03/03 09:36:30;;;;;;;10.32;9.50;;;;;;;;;;5032698;28;20041;-80
2021/03/03 09:39:01;;;;;;;10.48;9.70;;;;;;;;;;5009333;28;20053;-80
2021/03/03 09:41:28;;;;;;;9.98;9.52;;;;;;;;;;5026550;28;20069;-80
2021/03/03 09:43:59;;;;;;;81.38;59.83;;;;;;;;;;5016719;28;20053;-80
2021/03/03 09:46:26;;;;;;;11.55;10.52;;;;;;;;;;5047287;28;20124;-80
2021/03/03 09:48:53;;;;;;;9.32;8.77;;;;;;;;;;5024710;28;20136;-80
2021/03/03 09:51:22;;;;;;;7.50;7.05;;;;;;;;;;5026289;28;20029;-80
2021/03/03 09:53:52;;;;;;;14.05;12.68;;;;;;;;;;5032020;28;20502;-80
2021/03/03 09:56:26;;;;;;;20.98;19.23;;;;;;;;;;5028485;28;20065;-80
2021/03/03 09:58:53;;;;;;;7.45;6.97;;;;;;;;;;5045409;28;20037;-80
2021/03/03 10:01:20;;;;;;;6.30;6.00;;;;;;;;;;5028741;28;20406;-80
2021/03/03 10:03:49;;;;;;;5.25;5.03;;;;;;;;;;5025251;28;20043;-80
2021/03/03 10:06:16;;;;;;;6.70;6.30;;;;;;;;;;5048361;28;20437;-80
2021/03/03 10:08:43;;;;;;;10.43;5.70;;;;;;;;;;5028830;28;20045;-80
2021/03/03 10:11:10;;;;;;;6.28;5.97;;;;;;;;;;5045877;28;20474;-80
2021/03/03 10:13:41;;;;;;;6.57;6.28;;;;;;;;;;5044006;28;20041;-80
2021/03/03 10:16:14;;;;;;;3.97;3.83;;;;;;;;;;5032128;28;20033;-80
2021/03/03 10:18:41;;;;;;;;;;;;;;;;;;5036138;28;20401;-80
2021/03/03 10:21:08;;;;;;;4.18;3.67;;;;;;;;;;5049478;28;19978;-80
2021/03/03 10:23:35;;;;;;;4.57;4.18;;;;;;;;;;5029744;28;20065;-80
2021/03/03 10:26:06;;;;;;;3.67;3.55;;;;;;;;;;5034618;28;20045;-80
2021/03/03 10:28:33;;;;;;;3.55;3.25;;;;;;;;;;5046401;28;20039;-80
2021/03/03 10:31:02;;;;;;;3.55;3.15;;;;;;;;;;5053981;28;20041;-80
2021/03/03 10:33:29;;;;;;;4.05;3.58;;;;;;;;;;5032552;28;20148;-80
2021/03/03 10:35:58;;;;;;;3.88;3.78;;;;;;;;;;5016868;28;20401;-80
2021/03/03 10:38:25;;;;;;;3.78;3.67;;;;;;;;;;5034932;28;20466;-80
2021/03/03 10:40:53;;;;;;;3.38;3.13;;;;;;;;;;5047545;28;20056;-80
2021/03/03 10:43:21;;;;;;;2.55;2.45;;;;;;;;;;5045972;28;20106;-80
2021/03/03 10:45:49;;;;;;;2.80;2.70;;;;;;;;;;5015797;28;20044;-80
2021/03/03 10:48:30;;;;;;;2.50;2.40;;;;;;;;;;5050729;28;20029;-80
2021/03/03 10:51:01;;;;;;;2.95;2.85;;;;;;;;;;5051585;28;20065;-80
2021/03/03 10:53:47;;;;;;;2.38;2.25;;;;;;;;;;5043943;28;20049;-80
2021/03/03 10:56:21;;;;;;;3.10;2.80;;;;;;;;;;5029998;28;20559;-80
2021/03/03 10:58:48;;;;;;;2.13;1.95;;;;;;;;;;5048478;28;20094;-80
2021/03/03 11:01:15;;;;;;;3.60;3.40;;;;;;;;;;5014670;28;20493;-80
2021/03/03 11:03:57;;;;;;;2.80;2.70;;;;;;;;;;5045360;28;20038;-80
2021/03/03 11:06:30;;;;;;;2.92;2.83;;;;;;;;;;5046462;28;20095;-80
2021/03/03 11:08:57;;;;;;;;;;;;;;;;;;5026291;28;20048;-80
2021/03/03 11:11:24;;;;;;;2.97;2.85;;;;;;;;;;5025771;28;20047;-80
2021/03/03 11:13:53;;;;;;;2.85;2.75;;;;;;;;;;5044158;28;20076;-80
2021/03/03 11:16:21;;;;;;;4.40;2.70;;;;;;;;;;5025621;28;20045;-80
2021/03/03 11:18:47;;;;;;;2.83;2.72;;;;;;;;;;5026418;28;20100;-80
2021/03/03 11:21:15;;;;;;;2.30;2.20;;;;;;;;;;5030176;28;20099;-80
2021/03/03 11:23:44;;;;;;;3.88;3.63;;;;;;;;;;5033152;28;20052;-80
2021/03/03 11:26:11;;;;;;;3.65;3.55;;;;;;;;;;5030023;28;20061;-80
2021/03/03 11:28:39;;;;;;;4.35;3.72;;;;;;;;;;5037098;28;20033;-80
2021/03/03 11:31:06;;;;;;;4.38;4.10;;;;;;;;;;5031666;28;20092;-80
2021/03/03 11:33:33;;;;;;;4.20;4.10;;;;;;;;;;5051813;28;20045;-80
2021/03/03 11:36:00;;;;;;;4.15;3.95;;;;;;;;;;5043236;28;20037;-80
2021/03/03 11:38:29;;;;;;;4.65;4.45;;;;;;;;;;5053867;28;20098;-80
2021/03/03 11:40:56;;;;;;;3.58;3.40;;;;;;;;;;5028801;28;20049;-80
2021/03/03 11:43:23;;;;;;;4.20;3.90;;;;;;;;;;5048747;28;20033;-80
2021/03/03 11:45:49;;;;;;;3.25;3.10;;;;;;;;;;5049153;28;20044;-80
2021/03/03 11:48:16;;;;;;;3.30;3.03;;;;;;;;;;5012932;28;20044;-80
2021/03/03 11:50:44;;;;;;;3.47;3.22;;;;;;;;;;5050373;28;20124;-80
2021/03/03 11:53:11;;;;;;;3.47;3.38;;;;;;;;;;5030689;28;20065;-80
2021/03/03 11:55:38;;;;;;;3.40;3.22;;;;;;;;;;5050094;28;20037;-80
2021/03/03 11:58:05;;;;;;;3.38;3.17;;;;;;;;;;5026684;28;20041;-80
2021/03/03 12:00:32;;;;;;;3.45;3.30;;;;;;;;;;5038080;28;20038;-80
2021/03/03 12:03:09;;;;;;;4.38;4.03;;;;;;;;;;5032369;28;20052;-80
2021/03/03 12:05:36;;;;;;;3.97;3.85;;;;;;;;;;5029349;28;20041;-80
2021/03/03 12:08:06;;;;;;;4.10;3.90;;;;;;;;;;5034138;28;20540;-80
2021/03/03 12:10:33;;;;;;;3.42;3.22;;;;;;;;;;5044511;28;20047;-80
2021/03/03 12:13:00;;;;;;;4.28;4.07;;;;;;;;;;5047752;28;20038;-80
2021/03/03 12:15:27;;;;;;;3.88;3.72;;;;;;;;;;5050332;28;20041;-80
2021/03/03 12:17:54;;;;;;;4.60;4.47;;;;;;;;;;5025913;28;20037;-80
2021/03/03 12:20:31;;;;;;;4.00;3.80;;;;;;;;;;5046045;28;20545;-80
2021/03/03 12:22:58;;;;;;;4.57;4.38;;;;;;;;;;5029538;28;20040;-80
2021/03/03 12:25:25;;;;;;;5.32;4.45;;;;;;;;;;5030433;28;20076;-80
2021/03/03 12:27:52;;;;;;;5.00;4.63;;;;;;;;;;5048653;28;20079;-80
2021/03/03 12:30:20;;;;;;;5.75;5.35;;;;;;;;;;5026078;28;20041;-80
2021/03/03 12:32:47;;;;;;;5.35;5.03;;;;;;;;;;5031765;28;20084;-80
2021/03/03 12:35:14;;;;;;;5.70;5.20;;;;;;;;;;5015653;28;20489;-80
2021/03/03 12:37:41;;;;;;;5.82;5.45;;;;;;;;;;5029424;28;20044;-80
2021/03/03 12:40:08;;;;;;;6.25;5.78;;;;;;;;;;5044784;28;20425;-81
2021/03/03 12:42:35;;;;;;;7.38;6.82;;;;;;;;;;5030424;28;20033;-81
2021/03/03 12:45:02;;;;;;;5.20;4.97;;;;;;;;;;5021884;28;20135;-81
2021/03/03 12:47:29;;;;;;;5.38;4.97;;;;;;;;;;5043913;28;20033;-81
2021/03/03 12:49:57;;;;;;;6.55;6.05;;;;;;;;;;5031077;28;20048;-81
2021/03/03 12:52:24;;;;;;;5.45;5.13;;;;;;;;;;5046605;28;20033;-81
2021/03/03 12:54:51;;;;;;;5.72;5.22;;;;;;;;;;5039123;28;20482;-81
2021/03/03 12:57:18;;;;;;;5.53;5.22;;;;;;;;;;5029299;28;20048;-81
2021/03/03 12:59:45;;;;;;;8.40;6.53;;;;;;;;;;5024012;28;20044;-81
2021/03/03 13:02:12;;;;;;;6.18;5.88;;;;;;;;;;5049759;28;20037;-81
2021/03/03 13:04:39;;;;;;;4.75;4.50;;;;;;;;;;5044081;28;20376;-81
2021/03/03 13:07:06;;;;;;;5.50;5.15;;;;;;;;;;5046573;28;20424;-81
2021/03/03 13:09:39;;;;;;;6.28;5.72;;;;;;;;;;5025456;28;20110;-81
2021/03/03 13:12:06;;;;;;;6.13;5.80;;;;;;;;;;5042439;28;20538;-81
2021/03/03 13:14:33;;;;;;;5.05;4.75;;;;;;;;;;5050857;28;20045;-81
2021/03/03 13:17:02;;;;;;;5.88;5.47;;;;;;;;;;5029664;28;20037;-81
2021/03/03 13:19:32;;;;;;;4.78;4.63;;;;;;;;;;5043571;28;20120;-81
2021/03/03 13:21:59;;;;;;;5.00;4.60;;;;;;;;;;5025035;28;20033;-81
2021/03/03 13:24:27;;;;;;;4.22;4.03;;;;;;;;;;5022790;28;20514;-81
2021/03/03 13:26:54;;;;;;;6.38;4.75;;;;;;;;;;5033866;28;20045;-81
2021/03/03 13:29:21;;;;;;;5.60;5.35;;;;;;;;;;5044005;28;20037;-81
2021/03/03 13:31:48;;;;;;;5.10;4.80;;;;;;;;;;5029565;28;20037;-81
2021/03/03 13:34:17;;;;;;;4.65;4.30;;;;;;;;;;5048409;28;20057;-81
2021/03/03 13:36:44;;;;;;;6.07;5.75;;;;;;;;;;5045976;28;20064;-81
2021/03/03 13:39:11;;;;;;;4.57;4.38;;;;;;;;;;5031870;28;20127;-81
2021/03/03 13:41:39;;;;;;;4.13;3.80;;;;;;;;;;5024298;28;20547;-81
2021/03/03 13:44:06;;;;;;;4.03;3.92;;;;;;;;;;5031954;28;20486;-81
2021/03/03 13:46:33;;;;;;;3.60;3.47;;;;;;;;;;5043386;28;20033;-76
2021/03/03 13:49:00;;;;;;;4.97;4.57;;;;;;;;;;5042866;28;20050;-76
2021/03/03 13:51:27;;;;;;;3.83;3.53;;;;;;;;;;5035084;28;20053;-76
2021/03/03 13:53:54;;;;;;;3.35;3.15;;;;;;;;;;5046051;28;20064;-76
2021/03/03 13:56:21;;;;;;;3.60;3.50;;;;;;;;;;5020161;28;20060;-76
2021/03/03 13:58:48;;;;;;;3.85;3.58;;;;;;;;;;5035154;28;20068;-76
2021/03/03 14:01:15;;;;;;;3.60;3.50;;;;;;;;;;5050498;28;20071;-76
2021/03/03 14:03:42;;;;;;;3.20;2.92;;;;;;;;;;5057131;28;20045;-77
2021/03/03 14:06:09;;;;;;;3.25;3.10;;;;;;;;;;5039192;28;20100;-77
2021/03/03 14:08:36;;;;;;;3.30;3.10;;;;;;;;;;5044369;28;20093;-77
2021/03/03 14:11:03;;;;;;;2.45;2.35;;;;;;;;;;5054774;28;20029;-77
2021/03/03 14:13:30;;;;;;;2.97;2.45;;;;;;;;;;5051244;28;20045;-77
2021/03/03 14:15:57;;;;;;;3.53;3.33;;;;;;;;;;5051507;28;20049;-77
2021/03/03 14:18:24;;;;;;;3.22;3.13;;;;;;;;;;5047041;28;20490;-77
2021/03/03 14:20:52;;;;;;;3.78;3.58;;;;;;;;;;5052013;28;20068;-77
2021/03/03 14:23:18;;;;;;;3.95;3.42;;;;;;;;;;5042082;28;20376;-76
2021/03/03 14:25:45;;;;;;;3.92;3.63;;;;;;;;;;5024098;28;20124;-76
2021/03/03 14:28:13;;;;;;;3.13;2.97;;;;;;;;;;5049623;28;20088;-76
2021/03/03 14:30:40;;;;;;;2.00;1.90;;;;;;;;;;5049723;28;20029;-76
2021/03/03 14:33:08;;;;;;;2.28;2.17;;;;;;;;;;5052909;28;20047;-76
2021/03/03 14:35:39;;;;;;;3.30;3.13;;;;;;;;;;5030206;28;20041;-76